createdAt,value
2022-08-17T00:01:56.837Z,7.87
2022-08-17T00:04:00.874Z,7.93
2022-08-17T00:06:07.149Z,8.10
2022-08-17T00:08:10.463Z,8.60
2022-08-17T00:10:13.266Z,7.73
2022-08-17T00:12:51.162Z,7.63
2022-08-17T00:14:39.476Z,8.37
2022-08-17T00:16:56.408Z,8.30
2022-08-17T00:19:08.430Z,8.00
2022-08-17T00:21:12.745Z,8.73
2022-08-17T00:23:18.537Z,8.27
2022-08-17T00:25:21.242Z,8.07
2022-08-17T00:27:24.038Z,8.63
2022-08-17T00:29:26.728Z,8.33
2022-08-17T00:31:29.499Z,8.20
2022-08-17T00:33:33.148Z,8.50
2022-08-17T00:35:37.339Z,7.93
2022-08-17T00:37:40.282Z,8.23
2022-08-17T00:39:42.974Z,7.50
2022-08-17T00:41:45.775Z,7.80
2022-08-17T00:43:50.930Z,8.50
2022-08-17T00:45:53.912Z,8.17
2022-08-17T00:47:56.602Z,8.77
2022-08-17T00:49:59.460Z,8.63
2022-08-17T00:52:12.164Z,8.80
2022-08-17T00:54:19.686Z,8.90
2022-08-17T00:56:35.473Z,9.07
2022-08-17T00:58:39.218Z,9.00
2022-08-17T01:00:45.110Z,8.50
2022-08-17T01:02:49.441Z,8.23
2022-08-17T01:04:54.956Z,8.40
2022-08-17T01:06:59.227Z,8.00
2022-08-17T01:09:04.487Z,8.43
2022-08-17T01:11:07.935Z,8.67
2022-08-17T01:13:11.167Z,9.27
2022-08-17T01:15:13.887Z,8.07
2022-08-17T01:17:16.661Z,7.73
2022-08-17T01:19:22.059Z,8.40
2022-08-17T01:21:32.936Z,7.30
2022-08-17T01:23:37.907Z,8.70
2022-08-17T01:25:41.466Z,8.23
2022-08-17T01:27:44.514Z,7.60
2022-08-17T01:29:50.731Z,8.37
2022-08-17T01:31:56.151Z,8.30
2022-08-17T01:34:01.910Z,7.77
2022-08-17T01:36:06.860Z,8.27
2022-08-17T01:38:10.298Z,8.30
2022-08-17T01:40:19.660Z,9.40
2022-08-17T01:42:27.817Z,8.60
2022-08-17T01:44:30.538Z,8.10
2022-08-17T01:46:36.113Z,8.30
2022-08-17T01:48:39.401Z,9.03
2022-08-17T01:50:44.449Z,9.00
2022-08-17T01:52:54.103Z,8.87
2022-08-17T01:54:57.469Z,8.47
2022-08-17T01:57:01.449Z,8.30
2022-08-17T01:59:04.946Z,15.87
2022-08-17T02:01:09.709Z,10.17
2022-08-17T02:03:12.956Z,9.10
2022-08-17T02:05:15.777Z,8.80
2022-08-17T02:07:19.093Z,8.90
2022-08-17T02:09:30.267Z,10.77
2022-08-17T02:11:34.591Z,8.90
2022-08-17T02:13:38.563Z,8.20
2022-08-17T02:15:41.420Z,9.40
2022-08-17T02:17:44.219Z,14.20
2022-08-17T02:19:46.842Z,10.63
2022-08-17T02:21:54.451Z,9.93
2022-08-17T02:23:57.266Z,8.43
2022-08-17T02:26:01.302Z,8.80
2022-08-17T02:28:05.625Z,8.50
2022-08-17T02:30:59.028Z,9.40
2022-08-17T02:32:36.031Z,8.50
2022-08-17T02:34:38.738Z,9.10
2022-08-17T02:36:41.573Z,9.60
2022-08-17T02:38:44.770Z,8.67
2022-08-17T02:40:47.533Z,8.07
2022-08-17T02:42:50.270Z,8.87
2022-08-17T02:44:53.048Z,8.47
2022-08-17T02:46:57.097Z,8.23
2022-08-17T02:48:59.887Z,8.23
2022-08-17T02:51:03.876Z,8.23
2022-08-17T02:53:07.609Z,9.17
2022-08-17T02:55:13.672Z,8.43
2022-08-17T02:57:16.407Z,8.33
2022-08-17T02:59:19.032Z,7.50
2022-08-17T03:01:21.758Z,8.57
2022-08-17T03:03:25.918Z,8.20
2022-08-17T03:05:31.240Z,8.73
2022-08-17T03:07:33.935Z,8.37
2022-08-17T03:09:36.653Z,9.60
2022-08-17T03:11:39.375Z,8.30
2022-08-17T03:13:42.067Z,8.63
2022-08-17T03:15:47.039Z,8.37
2022-08-17T03:17:50.857Z,8.60
2022-08-17T03:19:55.039Z,8.20
2022-08-17T03:21:59.368Z,8.43
2022-08-17T03:24:02.098Z,8.40
2022-08-17T03:26:15.283Z,8.27
2022-08-17T03:28:18.320Z,8.20
2022-08-17T03:30:22.352Z,8.27
2022-08-17T03:32:25.053Z,7.90
2022-08-17T03:34:27.738Z,8.10
2022-08-17T03:36:31.721Z,8.43
2022-08-17T03:38:39.364Z,8.50
2022-08-17T03:40:56.464Z,8.20
2022-08-17T03:43:05.759Z,8.47
2022-08-17T03:45:15.535Z,8.80
2022-08-17T03:47:36.123Z,8.80
2022-08-17T03:49:56.611Z,8.50
2022-08-17T03:52:18.293Z,8.40
2022-08-17T03:54:38.431Z,8.23
2022-08-17T03:56:44.731Z,8.40
2022-08-17T03:58:47.833Z,8.60
2022-08-17T04:00:51.654Z,8.67
2022-08-17T04:02:54.585Z,7.70
2022-08-17T04:04:57.897Z,8.60
2022-08-17T04:07:01.886Z,9.00
2022-08-17T04:09:05.212Z,8.40
2022-08-17T04:11:07.853Z,8.80
2022-08-17T04:13:11.205Z,7.73
2022-08-17T04:15:14.056Z,8.90
2022-08-17T04:17:16.796Z,8.90
2022-08-17T04:19:21.180Z,8.90
2022-08-17T04:21:24.422Z,8.47
2022-08-17T04:23:32.887Z,9.30
2022-08-17T04:25:39.397Z,8.90
2022-08-17T04:27:42.090Z,9.17
2022-08-17T04:29:44.750Z,8.87
2022-08-17T04:31:58.473Z,9.40
2022-08-17T04:34:01.122Z,9.20
2022-08-17T04:36:05.462Z,8.63
2022-08-17T04:38:10.128Z,8.10
2022-08-17T04:40:31.948Z,7.87
2022-08-17T04:42:34.665Z,8.00
2022-08-17T04:44:38.180Z,8.30
2022-08-17T04:46:41.045Z,7.67
2022-08-17T04:48:45.813Z,8.20
2022-08-17T04:50:50.570Z,7.90
2022-08-17T04:52:53.276Z,7.73
2022-08-17T04:54:55.920Z,7.60
2022-08-17T04:56:59.860Z,8.40
2022-08-17T04:59:05.812Z,8.10
2022-08-17T05:01:08.842Z,8.50
2022-08-17T05:03:11.615Z,7.80
2022-08-17T05:05:19.847Z,7.70
2022-08-17T05:07:26.224Z,7.50
2022-08-17T05:09:31.249Z,8.50
2022-08-17T05:11:33.888Z,8.47
2022-08-17T05:13:37.945Z,7.57
2022-08-17T05:15:44.977Z,7.90
2022-08-17T05:17:47.996Z,8.40
2022-08-17T05:19:52.094Z,8.47
2022-08-17T05:21:54.913Z,8.17
2022-08-17T05:23:58.470Z,8.90
2022-08-17T05:26:02.274Z,8.40
2022-08-17T05:28:06.335Z,8.93
2022-08-17T05:30:11.526Z,8.60
2022-08-17T05:32:39.084Z,8.70
2022-08-17T05:34:38.153Z,8.30
2022-08-17T05:36:43.981Z,8.47
2022-08-17T05:38:47.051Z,8.27
2022-08-17T05:40:49.789Z,8.60
2022-08-17T05:42:53.354Z,8.60
2022-08-17T05:44:58.512Z,8.13
2022-08-17T05:47:03.141Z,8.83
2022-08-17T05:49:08.866Z,8.60
2022-08-17T05:51:52.468Z,8.07
2022-08-17T05:54:05.947Z,7.70
2022-08-17T05:56:29.492Z,7.93
2022-08-17T05:58:38.729Z,8.50
2022-08-17T06:00:51.983Z,8.57
2022-08-17T06:03:08.243Z,8.40
2022-08-17T06:05:18.706Z,8.20
2022-08-17T06:07:27.274Z,8.07
2022-08-17T06:09:39.720Z,9.10
2022-08-17T06:11:48.020Z,8.93
2022-08-17T06:14:19.599Z,9.00
2022-08-17T06:16:34.098Z,8.77
2022-08-17T06:18:46.913Z,8.40
2022-08-17T06:20:54.557Z,8.47
2022-08-17T06:23:05.882Z,9.60
2022-08-17T06:25:16.552Z,11.60
2022-08-17T06:27:24.620Z,10.83
2022-08-17T06:29:38.364Z,10.17
2022-08-17T06:31:42.240Z,9.50
2022-08-17T06:33:47.558Z,9.90
2022-08-17T06:36:09.187Z,9.20
2022-08-17T06:38:37.630Z,9.63
2022-08-17T06:41:01.298Z,9.37
2022-08-17T06:43:20.668Z,10.57
2022-08-17T06:45:28.721Z,9.77
2022-08-17T06:47:36.727Z,10.10
2022-08-17T06:49:54.670Z,9.90
2022-08-17T06:52:04.417Z,9.47
2022-08-17T06:54:12.000Z,9.47
2022-08-17T06:56:24.868Z,8.87
2022-08-17T06:58:48.264Z,8.73
2022-08-17T07:00:59.094Z,8.40
2022-08-17T07:03:11.135Z,8.80
2022-08-17T07:05:18.379Z,7.83
2022-08-17T07:07:40.556Z,8.67
2022-08-17T07:09:43.955Z,8.00
2022-08-17T07:11:51.826Z,8.20
2022-08-17T07:14:04.303Z,8.20
2022-08-17T07:16:15.470Z,7.80
2022-08-17T07:18:18.169Z,6.97
2022-08-17T07:20:23.405Z,7.20
2022-08-17T07:22:57.493Z,7.17
2022-08-17T07:25:00.576Z,7.23
2022-08-17T07:27:09.311Z,7.17
2022-08-17T07:29:17.346Z,7.80
2022-08-17T07:31:22.645Z,7.30
2022-08-17T07:33:27.490Z,7.70
2022-08-17T07:35:41.451Z,7.33
2022-08-17T07:37:53.343Z,7.87
2022-08-17T07:39:59.490Z,6.93
2022-08-17T07:42:19.813Z,7.30
2022-08-17T07:44:22.504Z,7.93
2022-08-17T07:46:45.387Z,8.00
2022-08-17T07:48:51.719Z,7.27
2022-08-17T07:51:00.111Z,7.37
2022-08-17T07:53:17.656Z,7.70
2022-08-17T07:55:29.282Z,8.13
2022-08-17T07:57:35.497Z,7.80
2022-08-17T07:59:40.705Z,8.40
2022-08-17T08:01:48.989Z,7.73
2022-08-17T08:03:59.501Z,8.77
2022-08-17T08:06:04.533Z,8.27
2022-08-17T08:08:23.115Z,7.30
2022-08-17T08:10:33.475Z,8.20
2022-08-17T08:12:38.136Z,7.27
2022-08-17T08:14:42.219Z,7.30
2022-08-17T08:16:58.971Z,8.10
2022-08-17T08:19:02.820Z,8.13
2022-08-17T08:21:10.357Z,8.33
2022-08-17T08:23:19.714Z,8.63
2022-08-17T08:25:28.867Z,8.67
2022-08-17T08:27:41.742Z,8.73
2022-08-17T08:29:53.920Z,9.00
2022-08-17T08:32:04.062Z,9.40
2022-08-17T08:34:49.731Z,8.67
2022-08-17T08:37:12.770Z,8.57
2022-08-17T08:39:21.622Z,9.20
2022-08-17T08:41:36.696Z,9.00
2022-08-17T08:43:52.866Z,8.73
2022-08-17T08:46:04.770Z,8.60
2022-08-17T08:48:46.088Z,8.60
2022-08-17T08:50:53.577Z,8.77
2022-08-17T08:53:18.799Z,8.40
2022-08-17T08:55:26.050Z,9.10
2022-08-17T08:57:34.847Z,9.20
2022-08-17T08:59:44.556Z,8.80
2022-08-17T09:02:02.229Z,8.70
2022-08-17T09:04:25.063Z,8.70
2022-08-17T09:06:44.297Z,8.93
2022-08-17T09:09:02.858Z,8.50
2022-08-17T09:11:12.244Z,8.60
2022-08-17T09:13:23.295Z,7.90
2022-08-17T09:15:28.938Z,8.30
2022-08-17T09:17:37.408Z,8.40
2022-08-17T09:19:45.594Z,8.40
2022-08-17T09:21:53.514Z,8.43
2022-08-17T09:24:05.508Z,8.57
2022-08-17T09:26:12.901Z,8.87
2022-08-17T09:28:20.258Z,9.20
2022-08-17T09:30:23.714Z,9.13
2022-08-17T09:32:32.458Z,8.50
2022-08-17T09:34:40.223Z,9.00
2022-08-17T09:37:02.811Z,8.97
2022-08-17T09:39:12.115Z,9.50
2022-08-17T09:41:18.697Z,9.40
2022-08-17T09:43:31.607Z,9.07
2022-08-17T09:45:40.032Z,9.57
2022-08-17T09:47:50.724Z,8.60
2022-08-17T09:49:58.627Z,8.03
2022-08-17T09:52:07.853Z,8.30
2022-08-17T09:54:37.999Z,8.20
2022-08-17T09:57:06.008Z,7.70
2022-08-17T09:59:38.188Z,8.47
2022-08-17T10:01:50.463Z,7.97
2022-08-17T10:04:12.412Z,7.87
2022-08-17T10:06:23.250Z,7.80
2022-08-17T10:08:35.133Z,7.93
2022-08-17T10:10:52.443Z,7.50
2022-08-17T10:13:06.194Z,6.60
2022-08-17T10:15:22.906Z,7.67
2022-08-17T10:17:34.029Z,7.27
2022-08-17T10:19:44.177Z,6.80
2022-08-17T10:22:14.999Z,6.23
2022-08-17T10:25:21.638Z,5.50
2022-08-17T10:27:20.179Z,6.20
2022-08-17T10:29:29.020Z,5.97
2022-08-17T10:31:39.788Z,5.73
2022-08-17T10:33:54.074Z,6.10
2022-08-17T10:36:03.644Z,6.57
2022-08-17T10:38:25.457Z,6.47
2022-08-17T10:40:38.271Z,6.00
2022-08-17T10:42:51.130Z,6.23
2022-08-17T10:45:02.609Z,6.10
2022-08-17T10:47:10.454Z,6.40
2022-08-17T10:49:33.852Z,6.37
2022-08-17T10:51:39.376Z,5.87
2022-08-17T10:53:52.533Z,6.10
2022-08-17T10:56:21.701Z,6.20
2022-08-17T10:58:28.530Z,6.17
2022-08-17T11:00:59.539Z,6.57
2022-08-17T11:03:03.086Z,6.17
2022-08-17T11:05:19.597Z,6.20
2022-08-17T11:07:43.892Z,5.93
2022-08-17T11:10:05.291Z,5.73
2022-08-17T11:12:28.168Z,5.73
2022-08-17T11:14:51.475Z,6.17
2022-08-17T11:17:11.244Z,5.93
2022-08-17T11:19:45.653Z,6.20
2022-08-17T11:22:10.508Z,5.73
2022-08-17T11:24:19.970Z,6.20
2022-08-17T11:26:26.887Z,6.40
2022-08-17T11:28:34.448Z,5.90
2022-08-17T11:30:51.449Z,6.60
2022-08-17T11:32:55.695Z,6.30
2022-08-17T11:35:11.931Z,5.70
2022-08-17T11:37:40.643Z,5.40
2022-08-17T11:40:06.486Z,5.90
2022-08-17T11:42:26.537Z,5.90
2022-08-17T11:44:42.674Z,5.87
2022-08-17T11:47:18.179Z,5.73
2022-08-17T11:49:48.104Z,5.20
2022-08-17T11:52:35.244Z,5.93
2022-08-17T11:54:42.357Z,5.50
2022-08-17T11:56:47.611Z,5.67
2022-08-17T11:58:50.311Z,5.30
2022-08-17T12:00:58.687Z,5.50
2022-08-17T12:03:26.392Z,5.70
2022-08-17T12:05:34.082Z,5.70
2022-08-17T12:07:43.345Z,5.90
2022-08-17T12:09:50.267Z,6.20
2022-08-17T12:12:12.909Z,6.10
2022-08-17T12:14:32.222Z,6.47
2022-08-17T12:16:45.435Z,5.17
2022-08-17T12:18:57.470Z,5.93
2022-08-17T12:21:23.329Z,5.83
2022-08-17T12:23:36.903Z,5.87
2022-08-17T12:25:45.368Z,6.13
2022-08-17T12:28:05.703Z,5.80
2022-08-17T12:30:12.954Z,5.60
2022-08-17T12:32:20.068Z,5.50
2022-08-17T12:34:27.734Z,5.80
2022-08-17T12:36:33.059Z,5.60
2022-08-17T12:38:38.434Z,5.40
2022-08-17T12:40:41.154Z,5.73
2022-08-17T12:42:56.209Z,5.70
2022-08-17T12:44:59.353Z,5.70
2022-08-17T12:47:07.511Z,5.90
2022-08-17T12:49:22.622Z,5.60
2022-08-17T12:51:26.677Z,5.70
2022-08-17T12:53:32.298Z,6.20
2022-08-17T12:55:38.731Z,5.40
2022-08-17T12:57:45.004Z,5.60
2022-08-17T12:59:52.053Z,5.90
2022-08-17T13:01:55.493Z,6.40
2022-08-17T13:04:00.647Z,5.57
2022-08-17T13:06:06.414Z,5.97
2022-08-17T13:08:17.036Z,6.03
2022-08-17T13:10:27.405Z,6.33
2022-08-17T13:12:35.872Z,6.10
2022-08-17T13:14:38.613Z,6.13
2022-08-17T13:16:41.357Z,6.20
2022-08-17T13:18:47.121Z,6.17
2022-08-17T13:20:54.360Z,6.03
2022-08-17T13:22:58.964Z,6.10
2022-08-17T13:25:08.445Z,5.80
2022-08-17T13:27:15.184Z,6.03
2022-08-17T13:29:24.363Z,5.77
2022-08-17T13:31:52.066Z,6.50
2022-08-17T13:34:14.224Z,5.90
2022-08-17T13:36:29.967Z,6.73
2022-08-17T13:38:43.836Z,6.33
2022-08-17T13:40:52.740Z,6.30
2022-08-17T13:42:57.218Z,5.70
2022-08-17T13:45:00.004Z,6.50
2022-08-17T13:47:03.751Z,5.97
2022-08-17T13:49:11.694Z,6.67
2022-08-17T13:51:28.935Z,6.57
2022-08-17T13:53:34.546Z,6.10
2022-08-17T13:55:37.247Z,5.83
2022-08-17T13:57:46.671Z,6.00
2022-08-17T13:59:55.730Z,6.33
2022-08-17T14:01:58.836Z,6.50
2022-08-17T14:04:04.286Z,6.17
2022-08-17T14:06:07.504Z,6.00
2022-08-17T14:08:14.067Z,6.43
2022-08-17T14:10:18.956Z,6.13
2022-08-17T14:12:24.386Z,6.10
2022-08-17T14:14:29.156Z,7.33
2022-08-17T14:16:31.830Z,6.37
2022-08-17T14:18:55.999Z,6.00
2022-08-17T14:20:57.386Z,6.03
2022-08-17T14:23:00.092Z,5.80
2022-08-17T14:25:03.611Z,5.73
2022-08-17T14:27:08.977Z,5.83
2022-08-17T14:29:15.203Z,6.10
2022-08-17T14:31:20.535Z,6.07
2022-08-17T14:33:24.758Z,5.77
2022-08-17T14:35:29.267Z,5.60
2022-08-17T14:37:32.240Z,5.80
2022-08-17T14:39:34.976Z,6.13
2022-08-17T14:41:38.792Z,5.17
2022-08-17T14:43:41.483Z,5.47
2022-08-17T14:45:44.488Z,6.03
2022-08-17T14:47:48.547Z,5.70
2022-08-17T14:49:51.417Z,5.40
2022-08-17T14:51:54.055Z,5.60
2022-08-17T14:53:57.161Z,5.93
2022-08-17T14:56:01.500Z,5.53
2022-08-17T14:58:04.962Z,6.27
2022-08-17T15:00:09.633Z,5.50
2022-08-17T15:02:12.382Z,5.77
2022-08-17T15:04:18.557Z,6.07
2022-08-17T15:06:22.277Z,6.10
2022-08-17T15:08:25.228Z,6.30
2022-08-17T15:10:29.294Z,6.37
2022-08-17T15:12:34.067Z,5.73
2022-08-17T15:14:37.352Z,5.83
2022-08-17T15:16:40.224Z,5.43
2022-08-17T15:18:42.873Z,5.30
2022-08-17T15:20:48.636Z,5.43
2022-08-17T15:22:54.945Z,5.90
2022-08-17T15:24:57.885Z,5.73
2022-08-17T15:27:00.617Z,5.97
2022-08-17T15:29:03.291Z,5.93
2022-08-17T15:31:06.700Z,5.40
2022-08-17T15:33:14.010Z,5.67
2022-08-17T15:35:25.133Z,6.00
2022-08-17T15:37:32.761Z,6.07
2022-08-17T15:39:35.508Z,5.90
2022-08-17T15:41:38.234Z,5.17
2022-08-17T15:43:40.964Z,6.07
2022-08-17T15:45:44.405Z,5.87
2022-08-17T15:47:59.478Z,5.90
2022-08-17T15:50:05.377Z,5.80
2022-08-17T15:52:17.065Z,5.60
2022-08-17T15:54:22.700Z,6.17
2022-08-17T15:56:27.060Z,5.80
2022-08-17T15:58:33.354Z,5.80
2022-08-17T16:00:48.286Z,5.70
2022-08-17T16:03:45.352Z,6.03
2022-08-17T16:05:27.145Z,5.47
2022-08-17T16:07:30.238Z,6.07
2022-08-17T16:09:34.265Z,5.77
2022-08-17T16:11:36.920Z,5.60
2022-08-17T16:13:40.610Z,5.93
2022-08-17T16:15:43.573Z,6.93
2022-08-17T16:17:46.300Z,5.97
2022-08-17T16:19:51.330Z,5.80
2022-08-17T16:21:54.037Z,5.77
2022-08-17T16:24:01.899Z,5.70
2022-08-17T16:26:06.210Z,5.97
2022-08-17T16:28:08.881Z,5.73
2022-08-17T16:30:17.348Z,6.17
2022-08-17T16:32:31.315Z,6.00
2022-08-17T16:34:34.650Z,6.20
2022-08-17T16:36:37.398Z,5.87
2022-08-17T16:38:40.069Z,6.60
2022-08-17T16:40:42.799Z,6.27
2022-08-17T16:42:48.427Z,6.40
2022-08-17T16:44:52.073Z,5.90
2022-08-17T16:46:54.769Z,6.30
2022-08-17T16:48:58.014Z,5.70
2022-08-17T16:51:03.592Z,7.60
2022-08-17T16:53:10.489Z,5.70
2022-08-17T16:55:13.521Z,5.90
2022-08-17T16:57:17.511Z,5.93
2022-08-17T16:59:31.156Z,5.73
2022-08-17T17:01:43.265Z,5.83
2022-08-17T17:03:53.124Z,6.30
2022-08-17T17:06:07.428Z,6.60
2022-08-17T17:08:14.276Z,6.13
2022-08-17T17:10:20.888Z,6.43
2022-08-17T17:13:01.090Z,5.97
2022-08-17T17:14:57.034Z,6.80
2022-08-17T17:17:04.167Z,6.30
2022-08-17T17:19:11.920Z,6.80
2022-08-17T17:21:20.918Z,6.40
2022-08-17T17:23:36.018Z,6.80
2022-08-17T17:25:44.489Z,6.80
2022-08-17T17:28:00.458Z,7.10
2022-08-17T17:30:11.382Z,7.77
2022-08-17T17:32:21.704Z,7.50
2022-08-17T17:34:26.889Z,7.70
2022-08-17T17:36:38.108Z,7.10
2022-08-17T17:38:48.097Z,7.20
2022-08-17T17:40:54.845Z,6.67
2022-08-17T17:43:34.802Z,6.80
2022-08-17T17:45:38.600Z,6.93
2022-08-17T17:47:41.270Z,7.20
2022-08-17T17:49:46.344Z,7.43
2022-08-17T17:52:10.055Z,7.63
2022-08-17T17:54:32.327Z,7.40
2022-08-17T17:56:44.683Z,6.80
2022-08-17T17:58:59.687Z,7.50
2022-08-17T18:01:18.879Z,7.43
2022-08-17T18:03:34.608Z,6.50
2022-08-17T18:05:53.550Z,7.13
2022-08-17T18:08:09.232Z,7.33
2022-08-17T18:10:29.528Z,7.13
2022-08-17T18:12:41.502Z,7.50
2022-08-17T18:14:56.602Z,7.80
2022-08-17T18:17:02.128Z,7.33
2022-08-17T18:19:07.163Z,7.80
2022-08-17T18:21:16.734Z,7.43
2022-08-17T18:23:23.140Z,7.30
2022-08-17T18:25:43.935Z,8.00
2022-08-17T18:27:51.969Z,8.20
2022-08-17T18:29:56.483Z,7.93
2022-08-17T18:32:24.902Z,7.70
2022-08-17T18:34:48.725Z,7.77
2022-08-17T18:36:52.646Z,7.23
2022-08-17T18:39:11.789Z,7.60
2022-08-17T18:41:23.654Z,7.37
2022-08-17T18:43:28.808Z,7.60
2022-08-17T18:45:50.356Z,7.67
2022-08-17T18:47:56.342Z,7.40
2022-08-17T18:50:19.561Z,7.53
2022-08-17T18:52:25.982Z,7.80
2022-08-17T18:54:28.650Z,7.43
2022-08-17T18:56:33.824Z,7.90
2022-08-17T18:58:37.625Z,8.10
2022-08-17T19:00:42.474Z,8.07
2022-08-17T19:02:55.704Z,8.13
2022-08-17T19:05:07.766Z,8.00
2022-08-17T19:07:24.270Z,7.80
2022-08-17T19:09:36.784Z,8.20
2022-08-17T19:11:40.414Z,8.40
2022-08-17T19:13:47.972Z,8.20
2022-08-17T19:16:11.752Z,7.53
2022-08-17T19:18:22.582Z,7.70
2022-08-17T19:20:32.997Z,8.63
2022-08-17T19:22:51.771Z,8.23
2022-08-17T19:25:03.490Z,8.40
2022-08-17T19:27:15.169Z,8.70
2022-08-17T19:29:26.798Z,8.10
2022-08-17T19:31:32.281Z,8.73
2022-08-17T19:33:37.467Z,8.70
2022-08-17T19:35:46.346Z,8.37
2022-08-17T19:38:02.636Z,8.80
2022-08-17T19:40:29.193Z,8.43
2022-08-17T19:42:47.646Z,9.50
2022-08-17T19:45:00.385Z,9.77
2022-08-17T19:47:10.829Z,8.87
2022-08-17T19:49:23.100Z,9.67
2022-08-17T19:51:45.000Z,9.20
2022-08-17T19:54:05.443Z,9.77
2022-08-17T19:56:15.933Z,9.13
2022-08-17T19:58:29.500Z,9.70
2022-08-17T20:00:35.159Z,9.43
2022-08-17T20:02:47.662Z,9.17
2022-08-17T20:04:54.905Z,8.43
2022-08-17T20:07:00.573Z,8.87
2022-08-17T20:09:14.953Z,8.60
2022-08-17T20:11:25.043Z,9.20
2022-08-17T20:13:33.345Z,8.63
2022-08-17T20:15:42.269Z,8.30
2022-08-17T20:17:48.243Z,7.70
2022-08-17T20:19:56.491Z,8.63
2022-08-17T20:22:05.062Z,8.37
2022-08-17T20:24:21.569Z,8.20
2022-08-17T20:26:28.067Z,8.43
2022-08-17T20:28:34.928Z,8.60
2022-08-17T20:30:40.794Z,8.13
2022-08-17T20:32:53.032Z,7.87
2022-08-17T20:35:09.548Z,8.00
2022-08-17T20:37:29.209Z,7.30
2022-08-17T20:39:37.901Z,8.07
2022-08-17T20:42:05.519Z,8.13
2022-08-17T20:44:08.218Z,7.73
2022-08-17T20:46:22.424Z,7.60
2022-08-17T20:48:38.076Z,8.10
2022-08-17T20:50:48.106Z,7.60
2022-08-17T20:52:54.912Z,7.97
2022-08-17T20:54:58.149Z,7.90
2022-08-17T20:57:01.386Z,8.10
2022-08-17T20:59:05.893Z,8.57
2022-08-17T21:01:13.425Z,7.63
2022-08-17T21:03:51.219Z,7.93
2022-08-17T21:06:00.392Z,8.27
2022-08-17T21:08:15.836Z,8.20
2022-08-17T21:10:30.864Z,8.10
2022-08-17T21:12:43.298Z,8.53
2022-08-17T21:14:59.622Z,8.00
2022-08-17T21:17:21.066Z,8.37
2022-08-17T21:19:49.016Z,8.30
2022-08-17T21:22:15.101Z,8.40
2022-08-17T21:24:33.178Z,8.73
2022-08-17T21:26:50.307Z,8.40
2022-08-17T21:29:31.447Z,9.13
2022-08-17T21:31:34.860Z,7.80
2022-08-17T21:33:39.482Z,8.00
2022-08-17T21:35:53.213Z,8.03
2022-08-17T21:38:05.301Z,7.90
2022-08-17T21:40:23.078Z,8.27
2022-08-17T21:42:30.096Z,8.27
2022-08-17T21:44:36.155Z,7.87
2022-08-17T21:46:42.897Z,7.60
2022-08-17T21:48:50.455Z,8.33
2022-08-17T21:51:02.152Z,8.90
2022-08-17T21:53:08.717Z,8.40
2022-08-17T21:55:22.012Z,8.60
2022-08-17T21:57:28.888Z,9.27
2022-08-17T21:59:34.644Z,9.27
2022-08-17T22:01:40.495Z,8.93
2022-08-17T22:03:43.452Z,9.47
2022-08-17T22:05:47.994Z,9.50
2022-08-17T22:07:59.895Z,8.97
2022-08-17T22:10:05.958Z,8.90
2022-08-17T22:12:11.264Z,8.00
2022-08-17T22:14:18.067Z,8.90
2022-08-17T22:16:28.578Z,9.60
2022-08-17T22:18:33.027Z,9.27
2022-08-17T22:20:35.862Z,8.57
2022-08-17T22:23:05.174Z,7.70
2022-08-17T22:25:21.015Z,8.63
2022-08-17T22:27:44.049Z,8.10
2022-08-17T22:29:58.564Z,8.17
2022-08-17T22:32:01.234Z,7.43
2022-08-17T22:34:15.227Z,8.07
2022-08-17T22:36:25.030Z,7.20
2022-08-17T22:38:33.855Z,8.00
2022-08-17T22:40:38.204Z,7.83
2022-08-17T22:42:47.244Z,7.60
2022-08-17T22:44:53.182Z,8.20
2022-08-17T22:47:06.610Z,8.40
2022-08-17T22:49:23.105Z,7.80
2022-08-17T22:51:29.900Z,7.70
2022-08-17T22:53:50.022Z,7.10
2022-08-17T22:56:16.425Z,8.17
2022-08-17T22:58:41.881Z,8.27
2022-08-17T23:00:46.972Z,8.20
2022-08-17T23:03:22.570Z,9.20
2022-08-17T23:05:26.210Z,8.50
2022-08-17T23:07:28.851Z,9.20
2022-08-17T23:09:31.554Z,8.90
2022-08-17T23:11:48.606Z,8.53
2022-08-17T23:13:54.902Z,9.80
2022-08-17T23:15:57.604Z,9.30
2022-08-17T23:18:04.745Z,10.27
2022-08-17T23:20:11.917Z,9.27
2022-08-17T23:22:14.868Z,9.47
2022-08-17T23:24:24.292Z,10.20
2022-08-17T23:26:27.708Z,9.50
2022-08-17T23:28:31.716Z,9.90
2022-08-17T23:30:39.281Z,10.50
2022-08-17T23:32:47.393Z,9.30
2022-08-17T23:34:59.084Z,10.20
2022-08-17T23:37:02.694Z,10.73
2022-08-17T23:39:06.171Z,10.70
2022-08-17T23:41:12.735Z,11.30
2022-08-17T23:43:23.919Z,11.00
2022-08-17T23:45:29.057Z,11.23
2022-08-17T23:47:31.727Z,10.90
2022-08-17T23:49:36.064Z,10.07
2022-08-17T23:51:42.372Z,11.03
2022-08-17T23:53:47.667Z,10.40
2022-08-17T23:56:03.849Z,10.87
2022-08-17T23:58:13.180Z,10.53
